sensor_id;sensor_type;location;lat;lon;timestamp;P1;durP1;ratioP1;P2;durP2;ratioP2
38901;SDS011;24661;53.566;9.910;2023-07-16T00:01:54;2.73;;;1.80;;
38901;SDS011;24661;53.566;9.910;2023-07-16T00:04:19;4.23;;;2.40;;
38901;SDS011;24661;53.566;9.910;2023-07-16T00:06:45;3.70;;;2.23;;
38901;SDS011;24661;53.566;9.910;2023-07-16T00:09:11;3.33;;;1.80;;
38901;SDS011;24661;53.566;9.910;2023-07-16T00:11:37;5.83;;;2.50;;
38901;SDS011;24661;53.566;9.910;2023-07-16T00:14:02;6.67;;;1.80;;
38901;SDS011;24661;53.566;9.910;2023-07-16T00:16:28;4.80;;;1.77;;
38901;SDS011;24661;53.566;9.910;2023-07-16T00:18:53;2.27;;;1.60;;
38901;SDS011;24661;53.566;9.910;2023-07-16T00:21:19;6.27;;;2.90;;
38901;SDS011;24661;53.566;9.910;2023-07-16T00:23:45;5.20;;;1.73;;
38901;SDS011;24661;53.566;9.910;2023-07-16T00:26:11;3.93;;;2.10;;
38901;SDS011;24661;53.566;9.910;2023-07-16T00:28:38;7.27;;;2.40;;
38901;SDS011;24661;53.566;9.910;2023-07-16T00:31:04;3.07;;;2.10;;
38901;SDS011;24661;53.566;9.910;2023-07-16T00:33:29;5.37;;;1.73;;
38901;SDS011;24661;53.566;9.910;2023-07-16T00:35:55;4.90;;;1.80;;
38901;SDS011;24661;53.566;9.910;2023-07-16T00:38:20;4.70;;;2.20;;
38901;SDS011;24661;53.566;9.910;2023-07-16T00:40:46;3.27;;;1.83;;
38901;SDS011;24661;53.566;9.910;2023-07-16T00:43:12;3.90;;;1.60;;
38901;SDS011;24661;53.566;9.910;2023-07-16T00:45:38;2.97;;;1.80;;
38901;SDS011;24661;53.566;9.910;2023-07-16T00:48:05;3.93;;;2.07;;
38901;SDS011;24661;53.566;9.910;2023-07-16T00:50:32;4.17;;;2.03;;
38901;SDS011;24661;53.566;9.910;2023-07-16T00:53:00;4.80;;;2.20;;
38901;SDS011;24661;53.566;9.910;2023-07-16T00:55:26;3.67;;;1.57;;
38901;SDS011;24661;53.566;9.910;2023-07-16T00:57:53;3.97;;;2.13;;
38901;SDS011;24661;53.566;9.910;2023-07-16T01:00:21;4.60;;;2.43;;
38901;SDS011;24661;53.566;9.910;2023-07-16T01:02:46;4.57;;;2.40;;
38901;SDS011;24661;53.566;9.910;2023-07-16T01:05:12;4.50;;;1.93;;
38901;SDS011;24661;53.566;9.910;2023-07-16T01:07:37;3.03;;;1.80;;
38901;SDS011;24661;53.566;9.910;2023-07-16T01:10:11;3.43;;;1.70;;
38901;SDS011;24661;53.566;9.910;2023-07-16T01:12:37;2.20;;;1.80;;
38901;SDS011;24661;53.566;9.910;2023-07-16T01:15:04;2.97;;;1.77;;
38901;SDS011;24661;53.566;9.910;2023-07-16T01:17:30;2.30;;;1.60;;
38901;SDS011;24661;53.566;9.910;2023-07-16T01:19:55;2.93;;;1.90;;
38901;SDS011;24661;53.566;9.910;2023-07-16T01:30:58;3.57;;;2.30;;
38901;SDS011;24661;53.566;9.910;2023-07-16T01:33:24;3.10;;;1.37;;
38901;SDS011;24661;53.566;9.910;2023-07-16T01:35:51;7.23;;;1.67;;
38901;SDS011;24661;53.566;9.910;2023-07-16T01:38:17;5.80;;;1.70;;
38901;SDS011;24661;53.566;9.910;2023-07-16T01:40:43;4.37;;;1.80;;
38901;SDS011;24661;53.566;9.910;2023-07-16T01:43:09;4.63;;;1.77;;
38901;SDS011;24661;53.566;9.910;2023-07-16T01:45:35;5.63;;;1.80;;
38901;SDS011;24661;53.566;9.910;2023-07-16T01:48:07;3.00;;;1.80;;
38901;SDS011;24661;53.566;9.910;2023-07-16T01:50:34;3.70;;;1.67;;
38901;SDS011;24661;53.566;9.910;2023-07-16T01:53:00;3.47;;;1.80;;
38901;SDS011;24661;53.566;9.910;2023-07-16T01:55:26;4.63;;;1.70;;
38901;SDS011;24661;53.566;9.910;2023-07-16T01:57:51;7.53;;;1.50;;
38901;SDS011;24661;53.566;9.910;2023-07-16T02:00:17;3.53;;;1.40;;
38901;SDS011;24661;53.566;9.910;2023-07-16T02:02:42;4.03;;;1.40;;
38901;SDS011;24661;53.566;9.910;2023-07-16T02:05:08;3.47;;;1.53;;
38901;SDS011;24661;53.566;9.910;2023-07-16T02:07:34;3.60;;;1.70;;
38901;SDS011;24661;53.566;9.910;2023-07-16T02:09:59;5.47;;;2.00;;
38901;SDS011;24661;53.566;9.910;2023-07-16T02:12:25;3.33;;;1.57;;
38901;SDS011;24661;53.566;9.910;2023-07-16T02:14:50;2.20;;;2.00;;
38901;SDS011;24661;53.566;9.910;2023-07-16T02:17:16;3.47;;;2.07;;
38901;SDS011;24661;53.566;9.910;2023-07-16T02:19:41;3.83;;;1.83;;
38901;SDS011;24661;53.566;9.910;2023-07-16T02:22:07;2.60;;;1.87;;
38901;SDS011;24661;53.566;9.910;2023-07-16T02:24:33;1.87;;;1.37;;
38901;SDS011;24661;53.566;9.910;2023-07-16T02:26:58;4.33;;;1.73;;
38901;SDS011;24661;53.566;9.910;2023-07-16T02:29:24;4.60;;;1.97;;
38901;SDS011;24661;53.566;9.910;2023-07-16T02:31:49;4.57;;;1.87;;
38901;SDS011;24661;53.566;9.910;2023-07-16T02:34:15;4.97;;;1.93;;
38901;SDS011;24661;53.566;9.910;2023-07-16T02:36:40;4.80;;;1.70;;
38901;SDS011;24661;53.566;9.910;2023-07-16T02:39:06;5.70;;;2.10;;
38901;SDS011;24661;53.566;9.910;2023-07-16T02:41:32;4.00;;;1.67;;
38901;SDS011;24661;53.566;9.910;2023-07-16T02:44:01;4.47;;;1.77;;
38901;SDS011;24661;53.566;9.910;2023-07-16T02:46:28;3.70;;;1.50;;
38901;SDS011;24661;53.566;9.910;2023-07-16T02:48:54;5.63;;;1.80;;
38901;SDS011;24661;53.566;9.910;2023-07-16T02:51:19;4.03;;;1.73;;
38901;SDS011;24661;53.566;9.910;2023-07-16T02:53:45;3.67;;;1.70;;
38901;SDS011;24661;53.566;9.910;2023-07-16T02:56:10;2.80;;;2.00;;
38901;SDS011;24661;53.566;9.910;2023-07-16T02:58:36;2.83;;;1.97;;
38901;SDS011;24661;53.566;9.910;2023-07-16T03:01:01;2.53;;;1.93;;
38901;SDS011;24661;53.566;9.910;2023-07-16T03:03:27;3.80;;;2.10;;
38901;SDS011;24661;53.566;9.910;2023-07-16T03:05:54;1.87;;;1.57;;
38901;SDS011;24661;53.566;9.910;2023-07-16T03:08:19;5.33;;;1.93;;
38901;SDS011;24661;53.566;9.910;2023-07-16T03:10:45;3.00;;;1.97;;
38901;SDS011;24661;53.566;9.910;2023-07-16T03:13:10;4.23;;;2.03;;
38901;SDS011;24661;53.566;9.910;2023-07-16T03:15:36;2.37;;;1.57;;
38901;SDS011;24661;53.566;9.910;2023-07-16T03:18:02;2.73;;;1.43;;
38901;SDS011;24661;53.566;9.910;2023-07-16T03:20:27;4.10;;;1.80;;
38901;SDS011;24661;53.566;9.910;2023-07-16T03:22:53;3.57;;;1.90;;
38901;SDS011;24661;53.566;9.910;2023-07-16T03:25:18;3.30;;;1.63;;
38901;SDS011;24661;53.566;9.910;2023-07-16T03:27:44;3.07;;;1.53;;
38901;SDS011;24661;53.566;9.910;2023-07-16T03:30:10;2.80;;;1.87;;
38901;SDS011;24661;53.566;9.910;2023-07-16T03:32:35;4.17;;;1.67;;
38901;SDS011;24661;53.566;9.910;2023-07-16T03:35:01;4.73;;;1.97;;
38901;SDS011;24661;53.566;9.910;2023-07-16T03:37:26;2.90;;;1.50;;
38901;SDS011;24661;53.566;9.910;2023-07-16T03:39:52;4.90;;;2.10;;
38901;SDS011;24661;53.566;9.910;2023-07-16T03:42:17;4.00;;;1.80;;
38901;SDS011;24661;53.566;9.910;2023-07-16T03:44:44;3.77;;;1.90;;
38901;SDS011;24661;53.566;9.910;2023-07-16T03:47:10;7.57;;;1.90;;
38901;SDS011;24661;53.566;9.910;2023-07-16T03:49:35;4.80;;;2.00;;
38901;SDS011;24661;53.566;9.910;2023-07-16T03:52:01;3.47;;;1.60;;
38901;SDS011;24661;53.566;9.910;2023-07-16T03:54:26;3.07;;;1.80;;
38901;SDS011;24661;53.566;9.910;2023-07-16T03:56:52;2.53;;;1.90;;
38901;SDS011;24661;53.566;9.910;2023-07-16T03:59:17;2.63;;;1.63;;
38901;SDS011;24661;53.566;9.910;2023-07-16T04:01:43;4.03;;;2.03;;
38901;SDS011;24661;53.566;9.910;2023-07-16T04:04:08;4.10;;;2.07;;
38901;SDS011;24661;53.566;9.910;2023-07-16T04:06:34;5.07;;;2.03;;
38901;SDS011;24661;53.566;9.910;2023-07-16T04:08:59;2.53;;;1.80;;
38901;SDS011;24661;53.566;9.910;2023-07-16T04:11:25;2.90;;;1.97;;
38901;SDS011;24661;53.566;9.910;2023-07-16T04:13:50;3.30;;;1.63;;
38901;SDS011;24661;53.566;9.910;2023-07-16T04:16:16;2.83;;;1.90;;
38901;SDS011;24661;53.566;9.910;2023-07-16T04:18:41;2.83;;;2.13;;
38901;SDS011;24661;53.566;9.910;2023-07-16T04:21:07;5.23;;;3.07;;
38901;SDS011;24661;53.566;9.910;2023-07-16T04:23:32;2.80;;;1.90;;
38901;SDS011;24661;53.566;9.910;2023-07-16T04:25:58;4.50;;;2.23;;
38901;SDS011;24661;53.566;9.910;2023-07-16T04:28:23;2.77;;;1.80;;
38901;SDS011;24661;53.566;9.910;2023-07-16T04:30:49;3.03;;;2.13;;
38901;SDS011;24661;53.566;9.910;2023-07-16T04:33:15;5.53;;;2.00;;
38901;SDS011;24661;53.566;9.910;2023-07-16T04:35:40;3.43;;;1.53;;
38901;SDS011;24661;53.566;9.910;2023-07-16T04:38:06;4.80;;;1.93;;
38901;SDS011;24661;53.566;9.910;2023-07-16T04:40:33;3.03;;;2.03;;
38901;SDS011;24661;53.566;9.910;2023-07-16T04:42:58;5.43;;;2.00;;
38901;SDS011;24661;53.566;9.910;2023-07-16T04:45:24;5.97;;;2.17;;
38901;SDS011;24661;53.566;9.910;2023-07-16T04:47:49;4.33;;;1.93;;
38901;SDS011;24661;53.566;9.910;2023-07-16T04:50:15;4.57;;;1.90;;
38901;SDS011;24661;53.566;9.910;2023-07-16T04:52:40;3.07;;;1.90;;
38901;SDS011;24661;53.566;9.910;2023-07-16T04:55:06;5.33;;;2.27;;
38901;SDS011;24661;53.566;9.910;2023-07-16T04:57:32;9.40;;;2.07;;
38901;SDS011;24661;53.566;9.910;2023-07-16T04:59:58;3.57;;;2.03;;
38901;SDS011;24661;53.566;9.910;2023-07-16T05:02:24;3.57;;;1.60;;
38901;SDS011;24661;53.566;9.910;2023-07-16T05:04:50;4.70;;;2.00;;
38901;SDS011;24661;53.566;9.910;2023-07-16T05:07:15;5.47;;;2.23;;
38901;SDS011;24661;53.566;9.910;2023-07-16T05:09:42;3.57;;;1.73;;
38901;SDS011;24661;53.566;9.910;2023-07-16T05:12:08;4.20;;;1.60;;
38901;SDS011;24661;53.566;9.910;2023-07-16T05:14:42;4.67;;;2.00;;
38901;SDS011;24661;53.566;9.910;2023-07-16T05:17:10;1.90;;;1.70;;
38901;SDS011;24661;53.566;9.910;2023-07-16T05:19:35;10.67;;;2.07;;
38901;SDS011;24661;53.566;9.910;2023-07-16T05:22:01;5.53;;;1.80;;
38901;SDS011;24661;53.566;9.910;2023-07-16T05:24:27;5.30;;;1.50;;
38901;SDS011;24661;53.566;9.910;2023-07-16T05:26:52;5.60;;;1.87;;
38901;SDS011;24661;53.566;9.910;2023-07-16T05:29:19;5.47;;;1.90;;
38901;SDS011;24661;53.566;9.910;2023-07-16T05:31:44;3.87;;;1.57;;
38901;SDS011;24661;53.566;9.910;2023-07-16T05:34:11;2.83;;;1.60;;
38901;SDS011;24661;53.566;9.910;2023-07-16T05:36:37;4.97;;;1.60;;
38901;SDS011;24661;53.566;9.910;2023-07-16T05:39:03;2.23;;;1.60;;
38901;SDS011;24661;53.566;9.910;2023-07-16T05:41:28;5.23;;;2.27;;
38901;SDS011;24661;53.566;9.910;2023-07-16T05:43:54;5.60;;;2.07;;
38901;SDS011;24661;53.566;9.910;2023-07-16T05:46:19;5.73;;;1.83;;
38901;SDS011;24661;53.566;9.910;2023-07-16T05:48:45;5.67;;;2.63;;
38901;SDS011;24661;53.566;9.910;2023-07-16T05:51:10;5.50;;;1.87;;
38901;SDS011;24661;53.566;9.910;2023-07-16T05:53:36;6.47;;;2.20;;
38901;SDS011;24661;53.566;9.910;2023-07-16T05:56:01;5.97;;;2.37;;
38901;SDS011;24661;53.566;9.910;2023-07-16T05:58:28;3.53;;;1.80;;
38901;SDS011;24661;53.566;9.910;2023-07-16T06:00:54;4.97;;;1.90;;
38901;SDS011;24661;53.566;9.910;2023-07-16T06:03:19;6.73;;;2.20;;
38901;SDS011;24661;53.566;9.910;2023-07-16T06:05:45;5.00;;;2.10;;
38901;SDS011;24661;53.566;9.910;2023-07-16T06:08:10;4.63;;;1.70;;
38901;SDS011;24661;53.566;9.910;2023-07-16T06:10:37;6.37;;;1.90;;
38901;SDS011;24661;53.566;9.910;2023-07-16T06:13:03;5.83;;;1.73;;
38901;SDS011;24661;53.566;9.910;2023-07-16T06:15:29;5.63;;;1.90;;
38901;SDS011;24661;53.566;9.910;2023-07-16T06:17:55;3.93;;;2.30;;
38901;SDS011;24661;53.566;9.910;2023-07-16T06:20:20;8.50;;;2.10;;
38901;SDS011;24661;53.566;9.910;2023-07-16T06:22:46;4.47;;;1.67;;
38901;SDS011;24661;53.566;9.910;2023-07-16T06:25:11;3.13;;;1.93;;
38901;SDS011;24661;53.566;9.910;2023-07-16T06:27:37;6.23;;;2.30;;
38901;SDS011;24661;53.566;9.910;2023-07-16T06:30:03;6.90;;;2.30;;
38901;SDS011;24661;53.566;9.910;2023-07-16T06:32:30;4.90;;;2.37;;
38901;SDS011;24661;53.566;9.910;2023-07-16T06:34:56;9.83;;;2.97;;
38901;SDS011;24661;53.566;9.910;2023-07-16T06:37:21;6.27;;;2.40;;
38901;SDS011;24661;53.566;9.910;2023-07-16T06:39:48;4.43;;;2.10;;
38901;SDS011;24661;53.566;9.910;2023-07-16T06:42:14;6.80;;;2.60;;
38901;SDS011;24661;53.566;9.910;2023-07-16T06:44:40;5.67;;;2.37;;
38901;SDS011;24661;53.566;9.910;2023-07-16T06:47:06;5.23;;;2.70;;
38901;SDS011;24661;53.566;9.910;2023-07-16T06:49:32;6.23;;;2.87;;
38901;SDS011;24661;53.566;9.910;2023-07-16T06:51:57;6.63;;;2.47;;
38901;SDS011;24661;53.566;9.910;2023-07-16T06:54:25;4.53;;;2.50;;
38901;SDS011;24661;53.566;9.910;2023-07-16T06:56:50;7.03;;;2.60;;
38901;SDS011;24661;53.566;9.910;2023-07-16T06:59:16;6.50;;;2.93;;
38901;SDS011;24661;53.566;9.910;2023-07-16T07:01:41;5.80;;;3.00;;
38901;SDS011;24661;53.566;9.910;2023-07-16T07:04:08;7.50;;;2.57;;
38901;SDS011;24661;53.566;9.910;2023-07-16T07:06:33;8.13;;;2.80;;
38901;SDS011;24661;53.566;9.910;2023-07-16T07:08:59;5.60;;;2.67;;
38901;SDS011;24661;53.566;9.910;2023-07-16T07:11:25;5.80;;;3.10;;
38901;SDS011;24661;53.566;9.910;2023-07-16T07:13:51;4.80;;;2.70;;
38901;SDS011;24661;53.566;9.910;2023-07-16T07:16:17;9.20;;;2.70;;
38901;SDS011;24661;53.566;9.910;2023-07-16T07:18:43;7.23;;;3.23;;
38901;SDS011;24661;53.566;9.910;2023-07-16T07:21:09;7.43;;;3.40;;
38901;SDS011;24661;53.566;9.910;2023-07-16T07:23:34;12.23;;;3.23;;
38901;SDS011;24661;53.566;9.910;2023-07-16T07:26:00;6.33;;;2.80;;
38901;SDS011;24661;53.566;9.910;2023-07-16T07:28:25;7.27;;;3.13;;
38901;SDS011;24661;53.566;9.910;2023-07-16T07:30:51;6.93;;;3.17;;
38901;SDS011;24661;53.566;9.910;2023-07-16T07:33:17;8.00;;;2.90;;
38901;SDS011;24661;53.566;9.910;2023-07-16T07:35:42;5.17;;;2.70;;
38901;SDS011;24661;53.566;9.910;2023-07-16T07:38:08;6.60;;;2.90;;
38901;SDS011;24661;53.566;9.910;2023-07-16T07:40:34;7.33;;;3.40;;
38901;SDS011;24661;53.566;9.910;2023-07-16T07:42:59;6.77;;;3.07;;
38901;SDS011;24661;53.566;9.910;2023-07-16T07:45:25;6.67;;;2.60;;
38901;SDS011;24661;53.566;9.910;2023-07-16T07:47:51;7.37;;;3.33;;
38901;SDS011;24661;53.566;9.910;2023-07-16T07:50:17;8.27;;;2.60;;
38901;SDS011;24661;53.566;9.910;2023-07-16T07:52:42;8.00;;;2.67;;
38901;SDS011;24661;53.566;9.910;2023-07-16T07:55:09;7.93;;;2.87;;
38901;SDS011;24661;53.566;9.910;2023-07-16T07:57:35;6.27;;;2.33;;
38901;SDS011;24661;53.566;9.910;2023-07-16T08:00:00;6.57;;;3.07;;
38901;SDS011;24661;53.566;9.910;2023-07-16T08:02:26;9.13;;;2.97;;
38901;SDS011;24661;53.566;9.910;2023-07-16T08:04:52;14.03;;;2.80;;
38901;SDS011;24661;53.566;9.910;2023-07-16T08:07:21;6.90;;;2.57;;
38901;SDS011;24661;53.566;9.910;2023-07-16T08:09:47;6.87;;;2.93;;
38901;SDS011;24661;53.566;9.910;2023-07-16T08:12:13;9.23;;;2.60;;
38901;SDS011;24661;53.566;9.910;2023-07-16T08:14:39;3.70;;;2.30;;
38901;SDS011;24661;53.566;9.910;2023-07-16T08:17:06;8.73;;;3.07;;
38901;SDS011;24661;53.566;9.910;2023-07-16T08:19:32;5.90;;;1.97;;
38901;SDS011;24661;53.566;9.910;2023-07-16T08:21:57;4.37;;;2.20;;
38901;SDS011;24661;53.566;9.910;2023-07-16T08:24:24;6.17;;;2.90;;
38901;SDS011;24661;53.566;9.910;2023-07-16T08:26:50;7.60;;;2.33;;
38901;SDS011;24661;53.566;9.910;2023-07-16T08:29:15;9.30;;;4.43;;
38901;SDS011;24661;53.566;9.910;2023-07-16T08:31:41;9.60;;;4.93;;
38901;SDS011;24661;53.566;9.910;2023-07-16T08:34:06;6.30;;;3.13;;
38901;SDS011;24661;53.566;9.910;2023-07-16T08:36:32;4.87;;;2.23;;
38901;SDS011;24661;53.566;9.910;2023-07-16T08:38:58;5.93;;;1.83;;
38901;SDS011;24661;53.566;9.910;2023-07-16T08:41:24;3.63;;;1.97;;
38901;SDS011;24661;53.566;9.910;2023-07-16T08:43:50;6.13;;;2.10;;
38901;SDS011;24661;53.566;9.910;2023-07-16T08:46:16;8.10;;;2.70;;
38901;SDS011;24661;53.566;9.910;2023-07-16T08:48:42;7.80;;;2.47;;
38901;SDS011;24661;53.566;9.910;2023-07-16T08:51:09;10.27;;;3.23;;
38901;SDS011;24661;53.566;9.910;2023-07-16T08:53:36;10.60;;;3.53;;
38901;SDS011;24661;53.566;9.910;2023-07-16T08:56:02;5.67;;;2.90;;
38901;SDS011;24661;53.566;9.910;2023-07-16T08:58:30;7.80;;;3.40;;
38901;SDS011;24661;53.566;9.910;2023-07-16T09:00:55;4.33;;;3.00;;
38901;SDS011;24661;53.566;9.910;2023-07-16T09:03:21;6.03;;;3.40;;
38901;SDS011;24661;53.566;9.910;2023-07-16T09:05:47;4.80;;;3.30;;
38901;SDS011;24661;53.566;9.910;2023-07-16T09:08:13;9.00;;;4.70;;
38901;SDS011;24661;53.566;9.910;2023-07-16T09:10:40;6.70;;;3.27;;
38901;SDS011;24661;53.566;9.910;2023-07-16T09:13:06;8.00;;;3.90;;
38901;SDS011;24661;53.566;9.910;2023-07-16T09:15:31;9.70;;;3.67;;
38901;SDS011;24661;53.566;9.910;2023-07-16T09:17:59;9.60;;;3.67;;
38901;SDS011;24661;53.566;9.910;2023-07-16T09:20:25;7.57;;;3.03;;
38901;SDS011;24661;53.566;9.910;2023-07-16T09:22:55;6.77;;;3.63;;
38901;SDS011;24661;53.566;9.910;2023-07-16T09:25:28;9.60;;;3.83;;
38901;SDS011;24661;53.566;9.910;2023-07-16T09:27:54;9.73;;;3.73;;
38901;SDS011;24661;53.566;9.910;2023-07-16T09:30:20;10.60;;;3.40;;
38901;SDS011;24661;53.566;9.910;2023-07-16T09:32:46;9.47;;;3.53;;
38901;SDS011;24661;53.566;9.910;2023-07-16T09:35:15;10.50;;;3.77;;
38901;SDS011;24661;53.566;9.910;2023-07-16T09:37:42;6.23;;;3.20;;
38901;SDS011;24661;53.566;9.910;2023-07-16T09:40:09;7.20;;;3.23;;
38901;SDS011;24661;53.566;9.910;2023-07-16T09:42:40;5.47;;;3.60;;
38901;SDS011;24661;53.566;9.910;2023-07-16T09:45:07;7.80;;;3.00;;
38901;SDS011;24661;53.566;9.910;2023-07-16T09:47:43;6.07;;;3.63;;
38901;SDS011;24661;53.566;9.910;2023-07-16T09:50:10;7.57;;;3.67;;
38901;SDS011;24661;53.566;9.910;2023-07-16T09:52:36;8.20;;;4.17;;
38901;SDS011;24661;53.566;9.910;2023-07-16T09:55:04;5.80;;;3.83;;
38901;SDS011;24661;53.566;9.910;2023-07-16T09:57:32;9.30;;;4.50;;
38901;SDS011;24661;53.566;9.910;2023-07-16T10:00:02;4.47;;;3.23;;
38901;SDS011;24661;53.566;9.910;2023-07-16T10:02:33;12.90;;;3.93;;
38901;SDS011;24661;53.566;9.910;2023-07-16T10:05:02;6.10;;;3.60;;
38901;SDS011;24661;53.566;9.910;2023-07-16T10:07:39;8.87;;;4.27;;
38901;SDS011;24661;53.566;9.910;2023-07-16T10:10:07;8.17;;;3.47;;
38901;SDS011;24661;53.566;9.910;2023-07-16T10:12:34;9.17;;;4.03;;
38901;SDS011;24661;53.566;9.910;2023-07-16T10:15:00;7.70;;;4.03;;
38901;SDS011;24661;53.566;9.910;2023-07-16T10:17:29;7.80;;;3.33;;
38901;SDS011;24661;53.566;9.910;2023-07-16T10:27:45;11.00;;;3.07;;
38901;SDS011;24661;53.566;9.910;2023-07-16T10:30:12;6.53;;;3.40;;
38901;SDS011;24661;53.566;9.910;2023-07-16T10:32:38;5.47;;;2.90;;
38901;SDS011;24661;53.566;9.910;2023-07-16T10:35:06;6.87;;;2.70;;
38901;SDS011;24661;53.566;9.910;2023-07-16T10:37:35;4.10;;;2.97;;
38901;SDS011;24661;53.566;9.910;2023-07-16T10:40:02;7.77;;;3.20;;
38901;SDS011;24661;53.566;9.910;2023-07-16T10:42:28;6.03;;;3.50;;
38901;SDS011;24661;53.566;9.910;2023-07-16T10:44:58;3.83;;;2.77;;
38901;SDS011;24661;53.566;9.910;2023-07-16T10:48:10;4.73;;;3.33;;
38901;SDS011;24661;53.566;9.910;2023-07-16T10:50:19;6.63;;;3.20;;
38901;SDS011;24661;53.566;9.910;2023-07-16T10:52:51;7.80;;;5.43;;
38901;SDS011;24661;53.566;9.910;2023-07-16T10:55:18;5.90;;;4.43;;
38901;SDS011;24661;53.566;9.910;2023-07-16T10:57:46;6.20;;;4.27;;
38901;SDS011;24661;53.566;9.910;2023-07-16T11:00:13;7.60;;;3.57;;
38901;SDS011;24661;53.566;9.910;2023-07-16T11:02:39;8.93;;;3.97;;
38901;SDS011;24661;53.566;9.910;2023-07-16T11:05:05;12.77;;;3.57;;
38901;SDS011;24661;53.566;9.910;2023-07-16T11:07:35;5.63;;;3.53;;
38901;SDS011;24661;53.566;9.910;2023-07-16T11:10:00;7.07;;;3.50;;
38901;SDS011;24661;53.566;9.910;2023-07-16T11:12:28;6.97;;;3.20;;
38901;SDS011;24661;53.566;9.910;2023-07-16T11:14:54;8.00;;;3.20;;
38901;SDS011;24661;53.566;9.910;2023-07-16T11:17:21;5.90;;;2.90;;
38901;SDS011;24661;53.566;9.910;2023-07-16T11:19:48;6.13;;;3.07;;
38901;SDS011;24661;53.566;9.910;2023-07-16T11:22:15;6.80;;;3.83;;
38901;SDS011;24661;53.566;9.910;2023-07-16T11:24:47;6.17;;;3.47;;
38901;SDS011;24661;53.566;9.910;2023-07-16T11:29:51;8.50;;;3.17;;
38901;SDS011;24661;53.566;9.910;2023-07-16T11:32:30;6.40;;;3.13;;
38901;SDS011;24661;53.566;9.910;2023-07-16T11:35:00;6.60;;;2.90;;
38901;SDS011;24661;53.566;9.910;2023-07-16T11:37:28;14.63;;;3.23;;
38901;SDS011;24661;53.566;9.910;2023-07-16T11:39:56;4.43;;;2.87;;
38901;SDS011;24661;53.566;9.910;2023-07-16T11:42:32;3.73;;;2.83;;
38901;SDS011;24661;53.566;9.910;2023-07-16T11:44:59;6.13;;;2.80;;
38901;SDS011;24661;53.566;9.910;2023-07-16T11:47:26;7.27;;;3.40;;
38901;SDS011;24661;53.566;9.910;2023-07-16T11:49:52;7.90;;;3.07;;
38901;SDS011;24661;53.566;9.910;2023-07-16T11:52:19;10.17;;;3.80;;
38901;SDS011;24661;53.566;9.910;2023-07-16T11:54:46;4.93;;;3.27;;
38901;SDS011;24661;53.566;9.910;2023-07-16T11:57:12;6.13;;;3.47;;
38901;SDS011;24661;53.566;9.910;2023-07-16T11:59:37;6.07;;;2.93;;
38901;SDS011;24661;53.566;9.910;2023-07-16T12:02:03;6.67;;;3.07;;
38901;SDS011;24661;53.566;9.910;2023-07-16T12:04:29;5.47;;;3.00;;
38901;SDS011;24661;53.566;9.910;2023-07-16T12:06:55;8.27;;;3.10;;
38901;SDS011;24661;53.566;9.910;2023-07-16T12:09:20;6.63;;;3.23;;
38901;SDS011;24661;53.566;9.910;2023-07-16T12:11:46;5.90;;;2.80;;
38901;SDS011;24661;53.566;9.910;2023-07-16T12:14:12;6.80;;;3.20;;
38901;SDS011;24661;53.566;9.910;2023-07-16T12:16:38;4.87;;;2.90;;
38901;SDS011;24661;53.566;9.910;2023-07-16T12:19:04;8.37;;;2.60;;
38901;SDS011;24661;53.566;9.910;2023-07-16T12:21:30;6.40;;;3.00;;
38901;SDS011;24661;53.566;9.910;2023-07-16T12:23:56;4.97;;;3.00;;
38901;SDS011;24661;53.566;9.910;2023-07-16T12:26:21;3.70;;;2.37;;
38901;SDS011;24661;53.566;9.910;2023-07-16T12:28:47;4.23;;;2.57;;
38901;SDS011;24661;53.566;9.910;2023-07-16T12:31:13;7.87;;;3.17;;
38901;SDS011;24661;53.566;9.910;2023-07-16T12:33:39;6.50;;;2.77;;
38901;SDS011;24661;53.566;9.910;2023-07-16T12:36:04;5.83;;;3.60;;
38901;SDS011;24661;53.566;9.910;2023-07-16T12:38:30;6.47;;;3.07;;
38901;SDS011;24661;53.566;9.910;2023-07-16T12:40:55;6.33;;;2.97;;
38901;SDS011;24661;53.566;9.910;2023-07-16T12:43:21;6.33;;;2.60;;
38901;SDS011;24661;53.566;9.910;2023-07-16T12:45:46;6.80;;;2.93;;
38901;SDS011;24661;53.566;9.910;2023-07-16T12:48:12;5.30;;;2.57;;
38901;SDS011;24661;53.566;9.910;2023-07-16T12:50:38;7.90;;;3.20;;
38901;SDS011;24661;53.566;9.910;2023-07-16T12:53:03;4.37;;;2.43;;
38901;SDS011;24661;53.566;9.910;2023-07-16T12:55:29;6.77;;;2.63;;
38901;SDS011;24661;53.566;9.910;2023-07-16T12:57:56;4.30;;;2.20;;
38901;SDS011;24661;53.566;9.910;2023-07-16T13:00:22;4.47;;;2.83;;
38901;SDS011;24661;53.566;9.910;2023-07-16T13:02:47;5.30;;;2.93;;
38901;SDS011;24661;53.566;9.910;2023-07-16T13:05:13;5.70;;;2.87;;
38901;SDS011;24661;53.566;9.910;2023-07-16T13:07:38;2.57;;;2.27;;
38901;SDS011;24661;53.566;9.910;2023-07-16T13:10:04;5.10;;;2.60;;
38901;SDS011;24661;53.566;9.910;2023-07-16T13:12:31;5.83;;;2.80;;
38901;SDS011;24661;53.566;9.910;2023-07-16T13:14:56;4.97;;;2.90;;
38901;SDS011;24661;53.566;9.910;2023-07-16T13:17:22;7.50;;;2.43;;
38901;SDS011;24661;53.566;9.910;2023-07-16T13:19:47;4.43;;;2.70;;
38901;SDS011;24661;53.566;9.910;2023-07-16T13:22:13;3.03;;;2.53;;
38901;SDS011;24661;53.566;9.910;2023-07-16T13:24:39;4.43;;;2.57;;
38901;SDS011;24661;53.566;9.910;2023-07-16T13:27:05;7.03;;;2.47;;
38901;SDS011;24661;53.566;9.910;2023-07-16T13:29:30;4.33;;;3.30;;
38901;SDS011;24661;53.566;9.910;2023-07-16T13:31:56;5.30;;;2.40;;
38901;SDS011;24661;53.566;9.910;2023-07-16T13:34:21;4.47;;;2.20;;
38901;SDS011;24661;53.566;9.910;2023-07-16T13:36:47;5.77;;;2.97;;
38901;SDS011;24661;53.566;9.910;2023-07-16T13:39:13;4.87;;;2.80;;
38901;SDS011;24661;53.566;9.910;2023-07-16T13:41:38;4.97;;;3.00;;
38901;SDS011;24661;53.566;9.910;2023-07-16T13:44:04;4.63;;;3.30;;
38901;SDS011;24661;53.566;9.910;2023-07-16T13:46:30;5.73;;;2.93;;
38901;SDS011;24661;53.566;9.910;2023-07-16T13:48:55;3.90;;;2.70;;
38901;SDS011;24661;53.566;9.910;2023-07-16T13:51:22;3.67;;;2.33;;
38901;SDS011;24661;53.566;9.910;2023-07-16T13:53:48;7.50;;;2.80;;
38901;SDS011;24661;53.566;9.910;2023-07-16T13:56:13;4.70;;;2.40;;
38901;SDS011;24661;53.566;9.910;2023-07-16T13:58:39;4.20;;;2.47;;
38901;SDS011;24661;53.566;9.910;2023-07-16T14:01:05;7.47;;;3.00;;
38901;SDS011;24661;53.566;9.910;2023-07-16T14:03:30;6.37;;;2.80;;
38901;SDS011;24661;53.566;9.910;2023-07-16T14:05:56;5.40;;;2.80;;
38901;SDS011;24661;53.566;9.910;2023-07-16T14:08:21;5.00;;;2.50;;
38901;SDS011;24661;53.566;9.910;2023-07-16T14:10:48;4.80;;;3.33;;
38901;SDS011;24661;53.566;9.910;2023-07-16T14:13:15;4.97;;;2.90;;
38901;SDS011;24661;53.566;9.910;2023-07-16T14:15:41;5.83;;;2.77;;
38901;SDS011;24661;53.566;9.910;2023-07-16T14:18:08;5.90;;;2.77;;
38901;SDS011;24661;53.566;9.910;2023-07-16T14:20:33;5.17;;;2.60;;
38901;SDS011;24661;53.566;9.910;2023-07-16T14:22:59;3.33;;;2.03;;
38901;SDS011;24661;53.566;9.910;2023-07-16T14:25:25;9.10;;;3.10;;
38901;SDS011;24661;53.566;9.910;2023-07-16T14:27:50;6.57;;;2.43;;
38901;SDS011;24661;53.566;9.910;2023-07-16T14:30:16;6.20;;;2.90;;
38901;SDS011;24661;53.566;9.910;2023-07-16T14:32:41;4.53;;;2.77;;
38901;SDS011;24661;53.566;9.910;2023-07-16T14:35:08;5.73;;;2.83;;
38901;SDS011;24661;53.566;9.910;2023-07-16T14:37:34;6.20;;;2.87;;
38901;SDS011;24661;53.566;9.910;2023-07-16T14:39:59;4.67;;;2.47;;
38901;SDS011;24661;53.566;9.910;2023-07-16T14:42:25;5.27;;;2.80;;
38901;SDS011;24661;53.566;9.910;2023-07-16T14:44:50;6.57;;;3.50;;
38901;SDS011;24661;53.566;9.910;2023-07-16T14:47:17;7.07;;;2.53;;
38901;SDS011;24661;53.566;9.910;2023-07-16T14:49:42;7.07;;;3.60;;
38901;SDS011;24661;53.566;9.910;2023-07-16T14:52:08;4.93;;;2.80;;
38901;SDS011;24661;53.566;9.910;2023-07-16T14:54:33;5.37;;;2.43;;
38901;SDS011;24661;53.566;9.910;2023-07-16T14:57:01;4.67;;;2.83;;
38901;SDS011;24661;53.566;9.910;2023-07-16T14:59:28;7.83;;;2.80;;
38901;SDS011;24661;53.566;9.910;2023-07-16T15:01:53;6.43;;;2.60;;